createdAt,value
2022-12-08T00:01:24.125Z,13.45
2022-12-08T00:03:52.041Z,13.45
2022-12-08T00:06:49.499Z,13.45
2022-12-08T00:09:41.087Z,13.45
2022-12-08T00:12:12.817Z,13.44
2022-12-08T00:14:42.553Z,13.44
2022-12-08T00:17:11.564Z,13.44
2022-12-08T00:19:39.963Z,13.44
2022-12-08T00:22:09.903Z,13.43
2022-12-08T00:24:39.873Z,13.42
2022-12-08T00:27:09.253Z,13.41
2022-12-08T00:29:37.227Z,13.39
2022-12-08T00:32:05.688Z,13.37
2022-12-08T00:34:33.553Z,13.36
2022-12-08T00:37:00.802Z,13.35
2022-12-08T00:39:27.919Z,13.33
2022-12-08T00:42:13.048Z,13.32
2022-12-08T00:44:41.341Z,13.30
2022-12-08T00:47:08.428Z,13.29
2022-12-08T00:49:35.477Z,13.28
2022-12-08T00:52:02.584Z,13.27
2022-12-08T00:54:29.725Z,13.25
2022-12-08T00:56:56.862Z,13.25
2022-12-08T00:59:23.783Z,13.24
2022-12-08T01:01:51.164Z,13.23
2022-12-08T01:04:19.655Z,13.22
2022-12-08T01:06:47.984Z,13.21
2022-12-08T01:09:16.398Z,13.20
2022-12-08T01:11:44.788Z,13.20
2022-12-08T01:14:12.652Z,13.19
2022-12-08T01:16:41.817Z,13.19
2022-12-08T01:19:11.063Z,13.19
2022-12-08T01:21:38.239Z,13.18
2022-12-08T01:24:05.773Z,13.17
2022-12-08T01:26:32.977Z,13.16
2022-12-08T01:29:00.152Z,13.14
2022-12-08T01:31:27.495Z,13.13
2022-12-08T01:33:54.613Z,13.12
2022-12-08T01:36:27.717Z,13.12
2022-12-08T01:38:57.137Z,13.11
2022-12-08T01:41:27.262Z,13.10
2022-12-08T01:44:08.522Z,13.08
2022-12-08T01:46:38.874Z,13.07
2022-12-08T01:49:11.852Z,13.06
2022-12-08T01:51:44.104Z,13.05
2022-12-08T01:54:13.522Z,13.03
2022-12-08T01:56:50.823Z,13.03
2022-12-08T01:59:19.376Z,13.02
2022-12-08T02:01:51.469Z,13.01
2022-12-08T02:04:18.654Z,13.01
2022-12-08T02:06:47.766Z,13.00
2022-12-08T02:09:15.446Z,12.99
2022-12-08T02:11:42.433Z,12.99
2022-12-08T02:14:11.986Z,12.99
2022-12-08T02:16:43.456Z,12.99
2022-12-08T02:19:41.353Z,13.00
2022-12-08T02:22:36.716Z,13.00
2022-12-08T02:25:16.375Z,12.99
2022-12-08T02:28:03.718Z,12.99
2022-12-08T02:31:05.856Z,12.98
2022-12-08T02:34:17.700Z,12.97
2022-12-08T02:36:50.357Z,12.96
2022-12-08T02:39:52.949Z,12.95
2022-12-08T02:42:38.366Z,12.93
2022-12-08T02:45:30.696Z,12.91
2022-12-08T02:47:59.282Z,12.90
2022-12-08T02:50:27.468Z,12.88
2022-12-08T02:52:54.879Z,12.87
2022-12-08T02:55:24.757Z,12.85
2022-12-08T02:58:03.977Z,12.84
2022-12-08T03:00:41.528Z,12.83
2022-12-08T03:03:23.817Z,12.81
2022-12-08T03:06:15.713Z,12.80
2022-12-08T03:08:50.082Z,12.79
2022-12-08T03:11:29.218Z,12.77
2022-12-08T03:14:00.610Z,12.76
2022-12-08T03:16:30.114Z,12.74
2022-12-08T03:19:13.841Z,12.73
2022-12-08T03:21:41.544Z,12.71
2022-12-08T03:24:10.990Z,12.70
2022-12-08T03:26:53.396Z,12.68
2022-12-08T03:29:21.024Z,12.67
2022-12-08T03:31:56.134Z,12.66
2022-12-08T03:34:26.450Z,12.65
2022-12-08T03:36:53.953Z,12.64
2022-12-08T03:39:21.106Z,12.62
2022-12-08T03:41:48.135Z,12.60
2022-12-08T03:44:15.301Z,12.58
2022-12-08T03:46:42.264Z,12.56
2022-12-08T03:49:09.467Z,12.53
2022-12-08T03:51:36.664Z,12.50
2022-12-08T03:54:04.699Z,12.48
2022-12-08T03:56:35.216Z,12.45
2022-12-08T03:59:03.517Z,12.42
2022-12-08T04:01:30.848Z,12.40
2022-12-08T04:03:58.039Z,12.37
2022-12-08T04:06:26.546Z,12.35
2022-12-08T04:08:53.682Z,12.32
2022-12-08T04:11:21.548Z,12.30
2022-12-08T04:13:48.932Z,12.28
2022-12-08T04:16:25.094Z,12.27
2022-12-08T04:18:52.593Z,12.25
2022-12-08T04:21:20.096Z,12.23
2022-12-08T04:23:47.645Z,12.21
2022-12-08T04:26:15.289Z,12.19
2022-12-08T04:28:42.365Z,12.18
2022-12-08T04:31:09.351Z,12.16
2022-12-08T04:33:36.643Z,12.14
2022-12-08T04:36:05.084Z,12.13
2022-12-08T04:38:32.530Z,12.12
2022-12-08T04:41:00.944Z,12.11
2022-12-08T04:43:28.373Z,12.10
2022-12-08T04:45:55.462Z,12.10
2022-12-08T04:48:22.476Z,12.09
2022-12-08T04:50:49.660Z,12.09
2022-12-08T04:53:16.670Z,12.08
2022-12-08T04:55:45.247Z,12.08
2022-12-08T04:58:14.340Z,12.07
2022-12-08T05:00:41.903Z,12.07
2022-12-08T05:03:09.504Z,12.07
2022-12-08T05:05:36.737Z,12.07
2022-12-08T05:08:04.404Z,12.07
2022-12-08T05:10:32.381Z,12.06
2022-12-08T05:13:00.335Z,12.06
2022-12-08T05:15:27.982Z,12.06
2022-12-08T05:17:55.541Z,12.06
2022-12-08T05:20:22.788Z,12.06
2022-12-08T05:22:49.854Z,12.06
2022-12-08T05:25:17.108Z,12.07
2022-12-08T05:27:44.303Z,12.08
2022-12-08T05:30:11.750Z,12.09
2022-12-08T05:32:38.925Z,12.09
2022-12-08T05:35:06.543Z,12.10
2022-12-08T05:37:33.685Z,12.10
2022-12-08T05:40:01.017Z,12.09
2022-12-08T05:42:28.038Z,12.08
2022-12-08T05:44:55.026Z,12.07
2022-12-08T05:47:22.001Z,12.06
2022-12-08T05:49:49.117Z,12.06
2022-12-08T05:52:17.187Z,12.05
2022-12-08T05:54:44.598Z,12.05
2022-12-08T05:57:11.773Z,12.04
2022-12-08T05:59:39.743Z,12.04
2022-12-08T06:02:06.829Z,12.04
2022-12-08T06:04:33.917Z,12.04
2022-12-08T06:07:00.960Z,12.04
2022-12-08T06:09:27.973Z,12.03
2022-12-08T06:11:55.093Z,12.04
2022-12-08T06:14:22.155Z,12.04
2022-12-08T06:16:49.203Z,12.05
2022-12-08T06:19:16.546Z,12.06
2022-12-08T06:21:43.638Z,12.07
2022-12-08T06:24:10.789Z,12.08
2022-12-08T06:26:40.359Z,12.09
2022-12-08T06:29:07.897Z,12.11
2022-12-08T06:31:34.988Z,12.13
2022-12-08T06:34:02.109Z,12.15
2022-12-08T06:36:30.139Z,12.17
2022-12-08T06:38:57.497Z,12.20
2022-12-08T06:41:25.997Z,12.23
2022-12-08T06:43:56.253Z,12.27
2022-12-08T06:46:23.371Z,12.31
2022-12-08T06:48:50.854Z,12.36
2022-12-08T06:51:20.775Z,12.41
2022-12-08T06:53:48.560Z,12.47
2022-12-08T06:56:17.068Z,12.53
2022-12-08T06:58:48.935Z,12.59
2022-12-08T07:01:19.767Z,12.65
2022-12-08T07:03:47.893Z,12.73
2022-12-08T07:06:25.200Z,12.80
2022-12-08T07:08:52.633Z,12.88
2022-12-08T07:11:21.904Z,12.96
2022-12-08T07:13:50.701Z,13.04
2022-12-08T07:16:17.892Z,13.12
2022-12-08T07:18:44.891Z,13.20
2022-12-08T07:21:15.101Z,13.28
2022-12-08T07:23:43.320Z,13.36
2022-12-08T07:26:12.512Z,13.43
2022-12-08T07:28:41.322Z,13.51
2022-12-08T07:31:16.379Z,13.59
2022-12-08T07:33:43.550Z,13.67
2022-12-08T07:36:10.687Z,13.75
2022-12-08T07:38:37.733Z,13.84
2022-12-08T07:41:04.916Z,13.93
2022-12-08T07:43:32.203Z,14.02
2022-12-08T07:46:00.150Z,14.11
2022-12-08T07:48:27.138Z,14.19
2022-12-08T07:51:04.289Z,14.28
2022-12-08T07:53:32.265Z,14.37
2022-12-08T07:55:59.552Z,14.46
2022-12-08T07:58:27.694Z,14.55
2022-12-08T08:00:54.942Z,14.65
2022-12-08T08:03:22.532Z,14.74
2022-12-08T08:05:50.216Z,14.83
2022-12-08T08:08:18.275Z,14.91
2022-12-08T08:10:47.066Z,14.99
2022-12-08T08:13:14.253Z,15.07
2022-12-08T08:15:41.428Z,15.15
2022-12-08T08:18:08.551Z,15.23
2022-12-08T08:20:35.639Z,15.31
2022-12-08T08:23:02.658Z,15.38
2022-12-08T08:25:29.696Z,15.45
2022-12-08T08:27:56.819Z,15.53
2022-12-08T08:30:24.622Z,15.60
2022-12-08T08:32:52.450Z,15.68
2022-12-08T08:35:19.570Z,15.76
2022-12-08T08:37:49.419Z,15.82
2022-12-08T08:40:18.468Z,15.89
2022-12-08T08:42:45.508Z,15.96
2022-12-08T08:45:12.615Z,16.03
2022-12-08T08:47:39.551Z,16.10
2022-12-08T08:50:07.864Z,16.18
2022-12-08T08:52:35.149Z,16.25
2022-12-08T08:55:04.165Z,16.34
2022-12-08T08:57:31.872Z,16.41
2022-12-08T08:59:59.999Z,16.49
2022-12-08T09:02:27.012Z,16.57
2022-12-08T09:04:54.250Z,16.65
2022-12-08T09:07:21.373Z,16.74
2022-12-08T09:09:49.116Z,16.82
2022-12-08T09:12:16.205Z,16.90
2022-12-08T09:14:43.345Z,16.97
2022-12-08T09:17:10.451Z,17.05
2022-12-08T09:19:37.927Z,17.13
2022-12-08T09:22:06.046Z,17.20
2022-12-08T09:24:33.306Z,17.27
2022-12-08T09:27:00.367Z,17.33
2022-12-08T09:29:32.539Z,17.39
2022-12-08T09:32:03.282Z,17.45
2022-12-08T09:34:33.565Z,17.51
2022-12-08T09:37:00.598Z,17.56
2022-12-08T09:39:27.749Z,17.62
2022-12-08T09:42:04.192Z,17.68
2022-12-08T09:44:55.523Z,17.75
2022-12-08T09:47:32.252Z,17.83
2022-12-08T09:50:15.669Z,17.91
2022-12-08T09:52:56.796Z,17.99
2022-12-08T09:55:45.996Z,18.08
2022-12-08T09:58:21.743Z,18.16
2022-12-08T10:00:48.931Z,18.25
2022-12-08T10:03:17.053Z,18.33
2022-12-08T10:05:52.205Z,18.42
2022-12-08T10:08:29.560Z,18.51
2022-12-08T10:11:05.525Z,18.58
2022-12-08T10:13:58.166Z,18.66
2022-12-08T10:16:33.957Z,18.74
2022-12-08T10:19:18.896Z,18.81
2022-12-08T10:21:45.891Z,18.89
2022-12-08T10:24:37.531Z,18.95
2022-12-08T10:27:11.853Z,19.02
2022-12-08T10:29:40.603Z,19.07
2022-12-08T10:32:19.260Z,19.12
2022-12-08T10:35:07.896Z,19.16
2022-12-08T10:37:35.160Z,19.20
2022-12-08T10:40:17.505Z,19.24
2022-12-08T10:42:55.483Z,19.28
2022-12-08T10:45:27.793Z,19.32
2022-12-08T10:48:00.268Z,19.35
2022-12-08T10:50:42.852Z,19.39
2022-12-08T10:53:34.101Z,19.44
2022-12-08T10:56:04.355Z,19.49
2022-12-08T10:58:36.479Z,19.54
2022-12-08T11:01:14.060Z,19.60
2022-12-08T11:03:51.357Z,19.65
2022-12-08T11:06:20.713Z,19.71
2022-12-08T11:08:59.412Z,19.77
2022-12-08T11:11:50.852Z,19.83
2022-12-08T11:14:30.237Z,19.88
2022-12-08T11:17:07.597Z,19.95
2022-12-08T11:19:40.077Z,20.00
2022-12-08T11:22:45.783Z,20.05
2022-12-08T11:25:12.791Z,20.11
2022-12-08T11:27:43.687Z,20.17
2022-12-08T11:30:25.623Z,20.22
2022-12-08T11:32:56.805Z,20.27
2022-12-08T11:35:40.728Z,20.31
2022-12-08T11:38:27.684Z,20.34
2022-12-08T11:41:00.497Z,20.37
2022-12-08T11:44:13.747Z,20.40
2022-12-08T11:46:49.038Z,20.43
2022-12-08T11:49:16.101Z,20.44
2022-12-08T11:51:48.842Z,20.46
2022-12-08T11:54:33.014Z,20.48
2022-12-08T11:57:02.775Z,20.50
2022-12-08T11:59:33.298Z,20.54
2022-12-08T12:02:03.074Z,20.58
2022-12-08T12:04:36.148Z,20.63
2022-12-08T12:07:12.713Z,20.67
2022-12-08T12:10:07.277Z,20.71
2022-12-08T12:12:44.400Z,20.74
2022-12-08T12:15:52.676Z,20.77
2022-12-08T12:18:46.701Z,20.80
2022-12-08T12:21:19.667Z,20.84
2022-12-08T12:23:55.743Z,20.88
2022-12-08T12:26:29.810Z,20.91
2022-12-08T12:29:05.800Z,20.93
2022-12-08T12:31:37.103Z,20.94
2022-12-08T12:34:22.466Z,20.97
2022-12-08T12:37:12.677Z,21.01
2022-12-08T12:40:06.102Z,21.05
2022-12-08T12:42:39.248Z,21.09
2022-12-08T12:45:18.435Z,21.13
2022-12-08T12:48:13.259Z,21.16
2022-12-08T12:50:43.659Z,21.20
2022-12-08T12:53:16.941Z,21.23
2022-12-08T12:56:01.628Z,21.25
2022-12-08T12:58:28.662Z,21.27
2022-12-08T13:01:11.237Z,21.27
2022-12-08T13:03:39.333Z,21.29
2022-12-08T13:06:10.022Z,21.29
2022-12-08T13:08:51.318Z,21.31
2022-12-08T13:11:18.553Z,21.32
2022-12-08T13:14:05.015Z,21.33
2022-12-08T13:16:35.726Z,21.34
2022-12-08T13:19:11.948Z,21.34
2022-12-08T13:21:40.032Z,21.34
2022-12-08T13:24:28.363Z,21.33
2022-12-08T13:27:04.585Z,21.33
2022-12-08T13:29:35.893Z,21.32
2022-12-08T13:32:04.833Z,21.32
2022-12-08T13:34:52.024Z,21.31
2022-12-08T13:37:27.035Z,21.31
2022-12-08T13:42:50.755Z,21.30
2022-12-08T13:45:52.963Z,21.29
2022-12-08T13:49:09.672Z,21.28
2022-12-08T13:53:22.475Z,21.26
2022-12-08T13:55:58.710Z,21.24
2022-12-08T13:57:36.315Z,21.22
2022-12-08T14:00:17.141Z,21.21
2022-12-08T14:02:48.571Z,21.20
2022-12-08T14:05:20.378Z,21.19
2022-12-08T14:07:54.376Z,21.18
2022-12-08T14:10:28.479Z,21.16
2022-12-08T14:13:00.091Z,21.14
2022-12-08T14:15:31.271Z,21.12
2022-12-08T14:18:01.545Z,21.10
2022-12-08T14:20:51.989Z,21.06
2022-12-08T14:23:21.391Z,21.03
2022-12-08T14:25:48.812Z,20.97
2022-12-08T14:28:17.680Z,20.90
2022-12-08T14:30:44.973Z,20.79
2022-12-08T14:33:15.634Z,20.67
2022-12-08T14:35:42.768Z,20.55
2022-12-08T14:38:15.426Z,20.42
2022-12-08T14:40:48.530Z,20.30
2022-12-08T14:43:18.997Z,20.17
2022-12-08T14:45:46.062Z,20.04
2022-12-08T14:48:28.173Z,19.92
2022-12-08T14:51:04.642Z,19.81
2022-12-08T14:53:53.694Z,19.70
2022-12-08T14:56:33.671Z,19.58
2022-12-08T14:59:12.287Z,19.47
2022-12-08T15:01:40.599Z,19.36
2022-12-08T15:04:19.156Z,19.26
2022-12-08T15:07:07.159Z,19.16
2022-12-08T15:09:41.150Z,19.06
2022-12-08T15:12:13.824Z,18.96
2022-12-08T15:14:59.336Z,18.86
2022-12-08T15:17:31.799Z,18.76
2022-12-08T15:20:01.106Z,18.67
2022-12-08T15:22:30.889Z,18.57
2022-12-08T15:24:58.646Z,18.48
2022-12-08T15:27:26.414Z,18.38
2022-12-08T15:29:53.908Z,18.29
2022-12-08T15:32:23.524Z,18.21
2022-12-08T15:34:50.782Z,18.12
2022-12-08T15:37:26.658Z,18.04
2022-12-08T15:39:54.081Z,17.96
2022-12-08T15:42:21.109Z,17.88
2022-12-08T15:44:48.330Z,17.81
2022-12-08T15:47:19.337Z,17.73
2022-12-08T15:49:47.621Z,17.66
2022-12-08T15:52:16.992Z,17.58
2022-12-08T15:54:44.257Z,17.51
2022-12-08T15:58:24.878Z,17.44
2022-12-08T16:00:51.149Z,17.37
2022-12-08T16:04:02.737Z,17.31
2022-12-08T16:07:26.844Z,17.24
2022-12-08T16:09:13.168Z,17.17
2022-12-08T16:12:08.801Z,17.11
2022-12-08T16:17:25.849Z,16.99
2022-12-08T16:19:53.100Z,16.93
2022-12-08T16:25:20.213Z,16.81
2022-12-08T16:28:01.407Z,16.75
2022-12-08T16:30:30.566Z,16.70
2022-12-08T16:32:57.620Z,16.64
2022-12-08T16:35:24.722Z,16.59
2022-12-08T16:37:51.729Z,16.53
2022-12-08T16:40:19.011Z,16.48
2022-12-08T16:42:47.905Z,16.43
2022-12-08T16:45:17.915Z,16.38
2022-12-08T16:47:47.712Z,16.34
2022-12-08T16:50:21.396Z,16.29
2022-12-08T16:52:49.658Z,16.25
2022-12-08T16:55:19.432Z,16.21
2022-12-08T16:57:47.633Z,16.17
2022-12-08T17:00:17.985Z,16.13
2022-12-08T17:02:45.335Z,16.10
2022-12-08T17:05:15.180Z,16.06
2022-12-08T17:07:44.337Z,16.02
2022-12-08T17:10:16.013Z,15.99
2022-12-08T17:12:44.152Z,15.96
2022-12-08T17:15:15.423Z,15.93
2022-12-08T17:17:42.838Z,15.90
2022-12-08T17:20:14.066Z,15.88
2022-12-08T17:22:41.603Z,15.85
2022-12-08T17:25:09.292Z,15.83
2022-12-08T17:27:37.358Z,15.81
2022-12-08T17:30:06.370Z,15.79
2022-12-08T17:32:33.728Z,15.77
2022-12-08T17:35:00.865Z,15.75
2022-12-08T17:37:27.844Z,15.72
2022-12-08T17:39:54.925Z,15.69
2022-12-08T17:42:26.069Z,15.66
2022-12-08T17:44:54.071Z,15.64
2022-12-08T17:47:21.247Z,15.61
2022-12-08T17:49:48.946Z,15.59
2022-12-08T17:52:16.104Z,15.56
2022-12-08T17:54:43.565Z,15.54
2022-12-08T17:57:11.024Z,15.52
2022-12-08T17:59:38.151Z,15.50
2022-12-08T18:02:05.595Z,15.48
2022-12-08T18:04:32.798Z,15.46
2022-12-08T18:07:01.611Z,15.45
2022-12-08T18:09:31.017Z,15.44
2022-12-08T18:11:58.585Z,15.43
2022-12-08T18:14:25.767Z,15.41
2022-12-08T18:16:52.906Z,15.40
2022-12-08T18:19:20.030Z,15.39
2022-12-08T18:21:47.228Z,15.38
2022-12-08T18:24:22.303Z,15.37
2022-12-08T18:26:52.481Z,15.36
2022-12-08T18:29:21.797Z,15.35
2022-12-08T18:31:49.345Z,15.33
2022-12-08T18:34:16.592Z,15.32
2022-12-08T18:36:43.585Z,15.30
2022-12-08T18:39:29.613Z,15.29
2022-12-08T18:41:57.742Z,15.27
2022-12-08T18:44:25.454Z,15.26
2022-12-08T18:46:52.403Z,15.25
2022-12-08T18:49:20.160Z,15.25
2022-12-08T18:51:47.694Z,15.24
2022-12-08T18:54:14.916Z,15.23
2022-12-08T18:56:41.884Z,15.23
2022-12-08T18:59:12.012Z,15.21
2022-12-08T19:01:40.098Z,15.20
2022-12-08T19:04:27.760Z,15.19
2022-12-08T19:06:56.392Z,15.18
2022-12-08T19:09:24.647Z,15.16
2022-12-08T19:11:51.913Z,15.14
2022-12-08T19:14:22.714Z,15.12
2022-12-08T19:16:54.660Z,15.10
2022-12-08T19:19:21.788Z,15.08
2022-12-08T19:21:49.063Z,15.06
2022-12-08T19:24:16.461Z,15.04
2022-12-08T19:26:43.912Z,15.02
2022-12-08T19:29:12.098Z,15.00
2022-12-08T19:31:39.607Z,14.99
2022-12-08T19:34:07.073Z,14.98
2022-12-08T19:36:35.727Z,14.97
2022-12-08T19:39:23.035Z,14.96
2022-12-08T19:42:09.461Z,14.94
2022-12-08T19:47:58.342Z,14.92
2022-12-08T19:50:38.554Z,14.91
2022-12-08T19:53:13.268Z,14.89
2022-12-08T19:55:42.230Z,14.88
2022-12-08T19:58:10.233Z,14.87
2022-12-08T20:00:40.090Z,14.85
2022-12-08T20:03:07.268Z,14.84
2022-12-08T20:05:36.836Z,14.83
2022-12-08T20:08:04.046Z,14.82
2022-12-08T20:10:36.074Z,14.81
2022-12-08T20:13:22.309Z,14.80
2022-12-08T20:15:49.641Z,14.78
2022-12-08T20:18:17.906Z,14.77
2022-12-08T20:20:46.335Z,14.75
2022-12-08T20:23:14.517Z,14.74
2022-12-08T20:25:43.077Z,14.72
2022-12-08T20:28:10.636Z,14.70
2022-12-08T20:30:42.660Z,14.68
2022-12-08T20:33:12.882Z,14.66
2022-12-08T20:35:40.405Z,14.64
2022-12-08T20:38:07.584Z,14.61
2022-12-08T20:40:34.918Z,14.59
2022-12-08T20:43:02.111Z,14.57
2022-12-08T20:45:29.318Z,14.56
2022-12-08T20:47:56.710Z,14.54
2022-12-08T20:50:24.467Z,14.53
2022-12-08T20:52:52.614Z,14.52
2022-12-08T20:55:20.052Z,14.50
2022-12-08T20:57:47.154Z,14.49
2022-12-08T21:00:17.724Z,14.48
2022-12-08T21:02:49.753Z,14.47
2022-12-08T21:05:17.379Z,14.46
2022-12-08T21:07:44.653Z,14.46
2022-12-08T21:10:12.147Z,14.45
2022-12-08T21:12:40.258Z,14.44
2022-12-08T21:15:08.198Z,14.42
2022-12-08T21:17:37.171Z,14.41
2022-12-08T21:20:05.134Z,14.40
2022-12-08T21:22:32.801Z,14.38
2022-12-08T21:24:59.959Z,14.37
2022-12-08T21:27:27.541Z,14.35
2022-12-08T21:29:54.698Z,14.34
2022-12-08T21:32:26.997Z,14.31
2022-12-08T21:34:57.692Z,14.29
2022-12-08T21:37:25.229Z,14.27
2022-12-08T21:39:52.568Z,14.26
2022-12-08T21:42:38.460Z,14.24
2022-12-08T21:45:06.459Z,14.22
2022-12-08T21:47:34.313Z,14.20
2022-12-08T21:50:01.874Z,14.19
2022-12-08T21:52:29.112Z,14.18
2022-12-08T21:54:56.158Z,14.17
2022-12-08T21:57:23.372Z,14.15
2022-12-08T21:59:51.223Z,14.14
2022-12-08T22:02:22.383Z,14.14
2022-12-08T22:04:52.889Z,14.13
2022-12-08T22:07:21.642Z,14.13
2022-12-08T22:09:49.250Z,14.12
2022-12-08T22:12:16.993Z,14.12
2022-12-08T22:14:44.177Z,14.12
2022-12-08T22:17:11.368Z,14.12
2022-12-08T22:19:38.859Z,14.11
2022-12-08T22:22:05.958Z,14.11
2022-12-08T22:24:33.234Z,14.12
2022-12-08T22:27:00.413Z,14.13
2022-12-08T22:29:28.533Z,14.14
2022-12-08T22:31:56.064Z,14.15
2022-12-08T22:34:23.418Z,14.17
2022-12-08T22:36:50.853Z,14.19
2022-12-08T22:39:18.419Z,14.22
2022-12-08T22:41:45.858Z,14.24
2022-12-08T22:44:16.414Z,14.26
2022-12-08T22:46:43.672Z,14.27
2022-12-08T22:49:10.860Z,14.30
2022-12-08T22:51:39.477Z,14.31
2022-12-08T22:54:06.757Z,14.34
2022-12-08T22:56:33.695Z,14.35
2022-12-08T22:59:00.984Z,14.36
2022-12-08T23:01:31.259Z,14.38
2022-12-08T23:03:59.655Z,14.39
2022-12-08T23:06:28.028Z,14.40
2022-12-08T23:08:56.031Z,14.40
2022-12-08T23:11:25.769Z,14.42
2022-12-08T23:13:53.264Z,14.43
2022-12-08T23:16:23.509Z,14.45
2022-12-08T23:18:51.584Z,14.46
2022-12-08T23:21:20.375Z,14.47
2022-12-08T23:23:48.167Z,14.48
2022-12-08T23:26:19.897Z,14.49
2022-12-08T23:28:47.378Z,14.50
2022-12-08T23:31:15.354Z,14.50
2022-12-08T23:33:42.710Z,14.52
2022-12-08T23:36:11.468Z,14.53
2022-12-08T23:38:38.578Z,14.54
2022-12-08T23:41:08.177Z,14.55
2022-12-08T23:43:35.624Z,14.56
2022-12-08T23:46:03.578Z,14.57
2022-12-08T23:48:35.022Z,14.58
2022-12-08T23:51:02.308Z,14.58
2022-12-08T23:53:30.712Z,14.58
2022-12-08T23:56:02.292Z,14.59
2022-12-08T23:58:33.419Z,14.60
